Time;durP1;ratioP1;P1;durP2;ratioP2;P2;SDS_P1;SDS_P2;PMS_P1;PMS_P2;Temp;Humidity;BMP_temperature;BMP_pressure;BME280_temperature;BME280_humidity;BME280_pressure;Samples;Min_cycle;Max_cycle;Signal;HPM_P1;HPM_P2
2023/07/25 00:00:09;;;;;;;2.50;2.30;;;22.80;61.50;23.40;99791.00;;;;6271758;22;20141;-50
2023/07/25 00:02:35;;;;;;;2.60;2.40;;;22.80;61.50;23.40;99784.00;;;;6272031;22;20164;-50
2023/07/25 00:05:04;;;;;;;2.83;2.30;;;22.80;61.50;23.40;99789.00;;;;6271516;22;20141;-50
2023/07/25 00:07:30;;;;;;;2.40;2.20;;;22.80;61.50;23.40;99797.00;;;;6277462;22;20192;-50
2023/07/25 00:09:56;;;;;;;2.43;2.23;;;22.80;61.50;23.40;99796.00;;;;6274580;22;20229;-50
2023/07/25 00:12:23;;;;;;;2.30;2.10;;;22.80;61.50;23.40;99806.00;;;;6270361;22;20720;-51
2023/07/25 00:14:49;;;;;;;2.43;2.23;;;22.80;61.50;23.40;99807.00;;;;6271533;22;20194;-55
2023/07/25 00:17:14;;;;;;;2.30;2.10;;;22.80;61.50;23.40;99799.00;;;;6271385;22;20184;-50
2023/07/25 00:19:41;;;;;;;2.70;2.50;;;22.70;61.30;23.40;99803.00;;;;6271837;22;20248;-50
2023/07/25 00:22:07;;;;;;;2.40;2.20;;;22.70;61.40;23.40;99808.00;;;;6272289;22;20173;-50
2023/07/25 00:24:32;;;;;;;2.67;2.47;;;22.70;61.30;23.40;99805.00;;;;6273296;22;20576;-50
2023/07/25 00:26:58;;;;;;;2.40;2.20;;;22.70;61.40;23.40;99804.00;;;;6272133;22;20145;-50
2023/07/25 00:29:24;;;;;;;2.27;2.07;;;22.70;61.40;23.40;99801.00;;;;6270963;22;20169;-50
2023/07/25 00:31:50;;;;;;;2.30;2.10;;;22.70;61.30;23.40;99795.00;;;;6271489;22;20145;-50
2023/07/25 00:34:15;;;;;;;2.40;2.20;;;22.70;61.30;23.30;99807.00;;;;6271628;22;20148;-51
2023/07/25 00:36:41;;;;;;;2.10;2.00;;;22.70;61.30;23.30;99808.00;;;;6271369;22;20234;-50
2023/07/25 00:39:07;;;;;;;2.40;2.20;;;22.70;61.40;23.30;99818.00;;;;6271556;22;20214;-50
2023/07/25 00:41:32;;;;;;;2.43;2.23;;;22.70;61.30;23.30;99803.00;;;;6271214;22;20628;-51
2023/07/25 00:43:58;;;;;;;2.53;2.33;;;22.70;61.30;23.30;99805.00;;;;6271616;22;20142;-50
2023/07/25 00:46:24;;;;;;;2.30;2.10;;;22.70;61.30;23.30;99807.00;;;;6271325;22;20145;-50
2023/07/25 00:48:50;;;;;;;2.03;1.90;;;22.70;61.30;23.30;99820.00;;;;6269904;22;20189;-50
2023/07/25 00:51:16;;;;;;;2.27;2.07;;;22.60;61.30;23.30;99811.00;;;;6271437;22;20228;-50
2023/07/25 00:53:42;;;;;;;2.03;1.93;;;22.60;61.20;23.30;99811.00;;;;6271433;22;20149;-50
2023/07/25 00:56:07;;;;;;;2.23;2.00;;;22.60;61.10;23.30;99801.00;;;;6270824;22;20169;-50
2023/07/25 00:58:33;;;;;;;2.23;2.03;;;22.70;61.30;23.30;99812.00;;;;6269468;22;20179;-50
2023/07/25 01:01:07;;;;;;;2.07;1.90;;;22.60;61.20;23.30;99811.00;;;;6243911;22;20141;-50
2023/07/25 01:03:37;;;;;;;2.33;2.13;;;22.60;61.20;23.20;99821.00;;;;6271251;22;20216;-50
2023/07/25 01:06:04;;;;;;;2.13;2.00;;;22.60;61.20;23.20;99817.00;;;;6269347;22;20210;-50
2023/07/25 01:08:29;;;;;;;2.43;2.23;;;22.60;61.20;23.20;99820.00;;;;6270924;22;20712;-50
2023/07/25 01:10:55;;;;;;;2.13;1.93;;;22.60;61.20;23.20;99809.00;;;;6270994;22;20149;-50
2023/07/25 01:13:21;;;;;;;2.20;2.10;;;22.60;61.10;23.20;99801.00;;;;6270979;22;20153;-49
2023/07/25 01:15:51;;;;;;;2.27;2.07;;;22.60;61.20;23.20;99791.00;;;;6270639;22;20172;-50
2023/07/25 01:18:17;;;;;;;2.40;2.20;;;22.50;61.00;23.20;99730.00;;;;6244587;22;20192;-51
2023/07/25 01:20:43;;;;;;;2.23;2.13;;;22.50;60.90;23.20;99717.00;;;;6219096;22;20542;-50
2023/07/25 01:23:11;;;;;;;2.30;2.10;;;22.60;61.00;23.20;99777.00;;;;6269934;22;20168;-50
2023/07/25 01:25:37;;;;;;;2.20;2.00;;;22.50;61.10;23.20;99784.00;;;;6218850;22;20530;-50
2023/07/25 01:28:03;;;;;;;2.40;2.20;;;22.50;60.90;23.20;99788.00;;;;6270972;22;20165;-50
2023/07/25 01:30:30;;;;;;;2.63;2.17;;;22.50;60.90;23.20;99784.00;;;;6269049;22;20149;-50
2023/07/25 01:32:56;;;;;;;3.23;2.17;;;22.50;60.90;23.20;99767.00;;;;6271582;22;20149;-50
2023/07/25 01:35:22;;;;;;;2.13;2.00;;;22.50;61.10;23.20;99767.00;;;;6270830;22;20181;-50
2023/07/25 01:37:47;;;;;;;2.50;2.20;;;22.50;61.00;23.10;99760.00;;;;6270658;22;20187;-50
2023/07/25 01:40:13;;;;;;;2.10;2.00;;;22.50;60.90;23.10;99779.00;;;;6270704;22;20145;-51
2023/07/25 01:42:39;;;;;;;2.30;2.10;;;22.50;60.90;23.10;99758.00;;;;6270990;22;20141;-48
2023/07/25 01:45:05;;;;;;;3.00;2.33;;;22.50;60.90;23.10;99754.00;;;;6270807;22;20221;-51
2023/07/25 01:47:31;;;;;;;2.20;2.00;;;22.50;61.70;23.10;99759.00;;;;6270615;22;20268;-51
2023/07/25 01:49:57;;;;;;;1.80;1.70;;;22.40;60.90;23.10;99751.00;;;;6271200;22;20176;-49
2023/07/25 01:52:23;;;;;;;2.30;2.10;;;22.50;60.90;23.10;99758.00;;;;6270940;22;20601;-49
2023/07/25 01:54:49;;;;;;;2.30;2.10;;;22.40;60.90;23.10;99754.00;;;;6271205;22;20546;-50
2023/07/25 01:57:15;;;;;;;2.30;2.10;;;22.50;60.90;23.10;99762.00;;;;6269350;22;20173;-50
2023/07/25 01:59:41;;;;;;;2.20;2.10;;;22.40;60.80;23.10;99753.00;;;;6270901;22;20660;-49
2023/07/25 02:02:06;;;;;;;2.33;1.97;;;22.50;60.90;23.10;99749.00;;;;6270293;22;20283;-52
2023/07/25 02:04:32;;;;;;;2.10;2.00;;;22.50;60.90;23.00;99750.00;;;;6271089;22;20156;-52
2023/07/25 02:06:58;;;;;;;2.40;2.20;;;22.40;60.90;23.10;99745.00;;;;6268990;22;20153;-51
2023/07/25 02:09:24;;;;;;;2.23;2.03;;;22.40;60.90;23.10;99745.00;;;;6272629;22;20176;-50
2023/07/25 02:11:49;;;;;;;2.30;2.10;;;22.40;60.90;23.10;99751.00;;;;6281063;22;20194;-50
2023/07/25 02:14:15;;;;;;;2.40;2.07;;;22.40;60.90;23.10;99742.00;;;;6270807;22;20144;-51
2023/07/25 02:16:41;;;;;;;2.30;2.10;;;22.40;60.90;23.00;99743.00;;;;6270395;22;20224;-51
2023/07/25 02:19:07;;;;;;;2.20;2.00;;;22.40;60.90;23.00;99742.00;;;;6270609;22;20161;-50
2023/07/25 02:21:33;;;;;;;2.27;2.10;;;22.40;60.90;23.00;99733.00;;;;6270617;22;20262;-50
2023/07/25 02:23:59;;;;;;;2.30;2.10;;;22.40;60.80;23.00;99736.00;;;;6271634;22;20589;-50
2023/07/25 02:26:25;;;;;;;3.07;2.33;;;22.40;60.90;23.00;99728.00;;;;6282778;22;20518;-50
2023/07/25 02:28:51;;;;;;;2.50;2.20;;;22.40;60.90;23.00;99718.00;;;;6271805;22;20165;-49
2023/07/25 02:31:16;;;;;;;2.30;2.10;;;22.30;60.70;23.00;99711.00;;;;6270776;22;20156;-49
2023/07/25 02:33:42;;;;;;;2.10;2.00;;;22.30;61.00;23.00;99730.00;;;;6271149;22;20279;-49
2023/07/25 02:36:08;;;;;;;2.20;2.00;;;22.30;60.90;23.00;99724.00;;;;6270442;22;20644;-51
2023/07/25 02:38:33;;;;;;;2.30;2.10;;;22.30;60.80;23.00;99734.00;;;;6268993;22;20169;-51
2023/07/25 02:40:59;;;;;;;2.20;2.00;;;22.30;61.60;22.90;99736.00;;;;6270651;22;20149;-51
2023/07/25 02:43:25;;;;;;;2.27;2.07;;;22.30;61.00;22.90;99736.00;;;;6270651;22;20160;-51
2023/07/25 02:45:51;;;;;;;2.03;1.93;;;22.30;60.90;22.90;99741.00;;;;6269782;22;20152;-50
2023/07/25 02:48:17;;;;;;;2.50;2.30;;;22.30;60.90;22.90;99744.00;;;;6270466;22;20173;-50
2023/07/25 02:50:43;;;;;;;2.00;1.80;;;22.30;60.80;22.90;99740.00;;;;6269668;22;20181;-50
2023/07/25 02:53:09;;;;;;;2.23;2.03;;;22.30;60.80;22.90;99745.00;;;;6272740;22;20149;-50
2023/07/25 02:55:34;;;;;;;2.03;1.93;;;22.30;60.70;22.90;99743.00;;;;6272232;22;20177;-50
2023/07/25 02:58:00;;;;;;;2.23;2.07;;;22.30;60.70;22.90;99742.00;;;;6272410;22;20165;-51
2023/07/25 03:00:26;;;;;;;2.40;2.20;;;22.20;60.60;22.90;99731.00;;;;6272695;22;20608;-50
2023/07/25 03:02:51;;;;;;;1.93;1.83;;;22.20;60.60;22.90;99756.00;;;;6272523;22;20594;-50
2023/07/25 03:05:17;;;;;;;1.90;1.80;;;22.20;60.70;22.80;99750.00;;;;6274097;22;20145;-50
2023/07/25 03:07:43;;;;;;;2.43;2.23;;;22.20;60.70;22.80;99747.00;;;;6274305;22;20161;-50
2023/07/25 03:10:09;;;;;;;2.30;2.10;;;22.20;60.80;22.80;99748.00;;;;6274461;22;20602;-50
2023/07/25 03:12:35;;;;;;;2.67;2.17;;;22.20;60.70;22.80;99759.00;;;;6273899;22;20228;-51
2023/07/25 03:15:02;;;;;;;2.13;2.03;;;22.20;60.70;22.80;99756.00;;;;6273240;22;20206;-50
2023/07/25 03:17:29;;;;;;;2.40;2.20;;;22.20;60.60;22.80;99754.00;;;;6273239;22;20255;-51
2023/07/25 03:19:55;;;;;;;2.23;2.03;;;22.20;60.60;22.80;99753.00;;;;6273803;22;20145;-50
2023/07/25 03:22:21;;;;;;;2.07;1.97;;;22.20;60.60;22.80;99743.00;;;;6273534;22;20216;-49
2023/07/25 03:24:47;;;;;;;2.10;1.90;;;22.10;60.60;22.80;99745.00;;;;6273523;22;20212;-49
2023/07/25 03:27:13;;;;;;;2.30;2.10;;;22.20;60.70;22.80;99750.00;;;;6273487;22;20172;-49
2023/07/25 03:29:39;;;;;;;2.20;2.00;;;22.10;60.60;22.80;99747.00;;;;6272125;22;20635;-49
2023/07/25 03:32:05;;;;;;;2.20;2.00;;;22.10;60.50;22.80;99748.00;;;;6273162;22;20203;-50
2023/07/25 03:34:31;;;;;;;3.17;2.10;;;22.10;60.60;22.80;99740.00;;;;6273969;22;20153;-50
2023/07/25 03:36:56;;;;;;;2.23;2.00;;;22.10;61.00;22.80;99744.00;;;;6273390;22;20196;-51
2023/07/25 03:39:22;;;;;;;2.10;1.90;;;22.10;61.50;22.80;99742.00;;;;6273457;22;20171;-50
2023/07/25 03:41:48;;;;;;;2.00;1.90;;;22.10;60.70;22.80;99748.00;;;;6273542;22;20145;-50
2023/07/25 03:44:20;;;;;;;2.30;2.10;;;22.20;60.70;22.80;99737.00;;;;6273388;22;20171;-51
2023/07/25 03:46:46;;;;;;;2.33;2.13;;;22.10;60.60;22.80;99737.00;;;;6272698;22;20129;-50
2023/07/25 03:49:12;;;;;;;2.03;1.83;;;22.10;60.60;22.80;99731.00;;;;6273462;22;20181;-51
2023/07/25 03:51:38;;;;;;;2.13;1.87;;;22.10;60.50;22.80;99727.00;;;;6273239;22;20488;-50
2023/07/25 03:54:04;;;;;;;2.90;2.00;;;22.10;60.50;22.80;99733.00;;;;6273551;22;20160;-50
2023/07/25 03:56:30;;;;;;;2.30;2.10;;;22.10;60.50;22.80;99741.00;;;;6272996;22;20208;-51
2023/07/25 03:58:56;;;;;;;2.07;1.87;;;22.10;60.60;22.70;99726.00;;;;6273205;22;20214;-50
2023/07/25 04:01:22;;;;;;;2.07;1.87;;;22.10;60.60;22.70;99719.00;;;;6271857;22;20152;-49
2023/07/25 04:03:48;;;;;;;3.17;2.30;;;22.10;60.50;22.70;99717.00;;;;6273160;22;20145;-49
2023/07/25 04:06:14;;;;;;;2.00;1.90;;;22.10;60.60;22.70;99728.00;;;;6271841;22;20149;-57
2023/07/25 04:08:40;;;;;;;2.20;2.00;;;22.10;60.50;22.70;99728.00;;;;6271116;22;20184;-49
2023/07/25 04:11:05;;;;;;;2.67;2.07;;;22.10;60.60;22.70;99720.00;;;;6273274;22;20490;-49
2023/07/25 04:13:31;;;;;;;2.43;1.90;;;22.00;60.50;22.70;99735.00;;;;6280642;22;20156;-49
2023/07/25 04:15:57;;;;;;;2.83;2.00;;;22.00;60.40;22.70;99722.00;;;;6275064;22;20168;-50
2023/07/25 04:18:23;;;;;;;2.23;1.90;;;22.00;60.40;22.70;99728.00;;;;6272147;22;20191;-49
2023/07/25 04:20:48;;;;;;;2.90;2.00;;;22.00;60.50;22.70;99726.00;;;;6273470;22;20656;-50
2023/07/25 04:23:15;;;;;;;4.13;2.10;;;22.00;60.60;22.70;99726.00;;;;6271534;22;20295;-50
2023/07/25 04:25:41;;;;;;;2.93;2.13;;;22.00;60.60;22.70;99731.00;;;;6272342;22;20621;-49
2023/07/25 04:28:07;;;;;;;4.33;2.13;;;22.00;60.60;22.70;99723.00;;;;6274380;22;20165;-50
2023/07/25 04:30:33;;;;;;;2.87;1.80;;;22.00;60.70;22.70;99726.00;;;;6264404;22;20149;-49
2023/07/25 04:32:58;;;;;;;5.10;1.93;;;22.00;60.70;22.60;99731.00;;;;6271574;22;20156;-50
2023/07/25 04:35:24;;;;;;;3.33;1.97;;;22.00;60.60;22.60;99728.00;;;;6271038;22;20155;-50
2023/07/25 04:37:50;;;;;;;2.23;2.00;;;22.00;60.60;22.60;99723.00;;;;6272144;22;20168;-52
2023/07/25 04:40:16;;;;;;;2.93;2.10;;;22.00;60.70;22.60;99729.00;;;;6272482;22;20656;-49
2023/07/25 04:42:41;;;;;;;5.63;2.10;;;22.00;60.70;22.60;99727.00;;;;6272248;22;20343;-50
2023/07/25 04:45:08;;;;;;;3.87;2.20;;;21.90;60.70;22.60;99733.00;;;;6271486;22;20609;-50
2023/07/25 04:47:33;;;;;;;3.43;2.10;;;21.90;60.80;22.60;99742.00;;;;6271791;22;20181;-49
2023/07/25 04:49:59;;;;;;;5.23;2.10;;;21.90;60.80;22.60;99723.00;;;;6270957;22;20557;-49
2023/07/25 04:52:25;;;;;;;2.20;2.00;;;21.90;60.80;22.60;99723.00;;;;6272045;22;20153;-49
2023/07/25 04:54:55;;;;;;;5.97;2.10;;;21.90;60.60;22.60;99729.00;;;;6271324;22;20145;-49
2023/07/25 04:57:21;;;;;;;3.93;2.13;;;21.90;60.60;22.60;99730.00;;;;6269835;22;20259;-50
2023/07/25 04:59:47;;;;;;;3.47;2.03;;;21.90;60.80;22.60;99717.00;;;;6271982;22;20149;-49
2023/07/25 05:02:13;;;;;;;4.40;2.10;;;21.90;60.80;22.60;99734.00;;;;6267162;22;20514;-49
2023/07/25 05:04:38;;;;;;;2.47;2.10;;;21.90;60.80;22.60;99732.00;;;;6271519;22;20145;-49
2023/07/25 05:07:04;;;;;;;3.13;1.90;;;21.80;60.70;22.60;99709.00;;;;6270322;22;20160;-49
2023/07/25 05:09:30;;;;;;;2.63;2.00;;;21.80;60.70;22.60;99726.00;;;;6271802;22;20513;-50
2023/07/25 05:11:57;;;;;;;4.37;2.10;;;21.90;60.60;22.60;99727.00;;;;6271923;22;20152;-49
2023/07/25 05:14:23;;;;;;;2.03;1.83;;;21.80;60.50;22.60;99731.00;;;;6270864;22;20149;-49
2023/07/25 05:16:48;;;;;;;3.67;2.07;;;21.90;60.70;22.60;99742.00;;;;6268519;22;20189;-51
2023/07/25 05:19:14;;;;;;;2.93;2.07;;;21.80;60.60;22.60;99727.00;;;;6272113;22;20172;-49
2023/07/25 05:21:40;;;;;;;3.40;2.13;;;21.80;60.50;22.60;99720.00;;;;6270794;22;20141;-50
2023/07/25 05:24:05;;;;;;;2.30;2.03;;;21.80;60.70;22.60;99713.00;;;;6271450;22;20148;-48
2023/07/25 05:26:31;;;;;;;3.47;2.20;;;21.80;60.60;22.60;99721.00;;;;6268397;22;20207;-49
2023/07/25 05:28:57;;;;;;;3.43;2.07;;;21.80;60.70;22.60;99716.00;;;;6271955;22;20173;-49
2023/07/25 05:31:22;;;;;;;2.27;2.07;;;21.80;60.70;22.60;99723.00;;;;6269883;22;20528;-50
2023/07/25 05:33:48;;;;;;;2.80;1.80;;;21.80;60.70;22.60;99726.00;;;;6271808;22;20145;-50
2023/07/25 05:36:14;;;;;;;3.30;2.27;;;21.80;60.70;22.60;99729.00;;;;6268059;22;20165;-50
2023/07/25 05:38:40;;;;;;;2.37;2.07;;;21.80;60.60;22.60;99718.00;;;;6271799;22;20161;-49
2023/07/25 05:41:06;;;;;;;2.10;1.90;;;21.80;60.70;22.60;99716.00;;;;6271531;22;20565;-49
2023/07/25 05:43:32;;;;;;;3.00;1.93;;;21.80;60.50;22.60;99721.00;;;;6272109;22;20601;-49
2023/07/25 05:45:58;;;;;;;2.10;2.00;;;21.80;60.60;22.60;99732.00;;;;6269439;22;20183;-49
2023/07/25 05:48:24;;;;;;;2.40;2.20;;;21.80;60.70;22.60;99731.00;;;;6270765;22;20180;-49
2023/07/25 05:50:51;;;;;;;2.10;1.90;;;21.80;60.70;22.50;99732.00;;;;6270092;22;20149;-50
2023/07/25 05:53:18;;;;;;;3.13;2.00;;;21.80;60.60;22.50;99736.00;;;;6272206;22;20152;-49
2023/07/25 05:55:45;;;;;;;2.40;2.00;;;21.80;60.70;22.50;99739.00;;;;6270386;22;20165;-49
2023/07/25 05:58:16;;;;;;;2.30;1.97;;;21.80;60.80;22.50;99746.00;;;;6244825;22;20168;-50
2023/07/25 06:00:42;;;;;;;2.73;1.90;;;21.80;60.70;22.50;99749.00;;;;6271232;22;20129;-50
2023/07/25 06:03:12;;;;;;;2.00;1.90;;;21.80;60.70;22.50;99756.00;;;;6269673;22;20598;-49
2023/07/25 06:05:38;;;;;;;2.03;1.90;;;21.80;60.70;22.50;99757.00;;;;6269887;22;20180;-48
2023/07/25 06:08:04;;;;;;;2.20;1.87;;;21.80;60.70;22.50;99758.00;;;;6271244;22;20176;-49
2023/07/25 06:10:30;;;;;;;2.33;2.07;;;21.70;60.70;22.50;99762.00;;;;6271464;22;20149;-49
2023/07/25 06:12:56;;;;;;;2.17;1.97;;;21.80;60.70;22.50;99764.00;;;;6219282;22;20148;-51
2023/07/25 06:15:22;;;;;;;2.00;1.80;;;21.70;60.50;22.50;99765.00;;;;6273849;22;20145;-49
2023/07/25 06:17:47;;;;;;;2.10;1.90;;;21.70;60.60;22.50;99769.00;;;;6274673;22;20783;-49
2023/07/25 06:20:13;;;;;;;3.77;2.07;;;21.70;60.70;22.50;99768.00;;;;6271108;22;20148;-49
2023/07/25 06:22:39;;;;;;;2.30;2.10;;;21.70;60.80;22.50;99774.00;;;;6271507;22;20152;-49
2023/07/25 06:25:08;;;;;;;3.87;2.13;;;21.70;60.80;22.50;99757.00;;;;6272039;22;20145;-49
2023/07/25 06:27:34;;;;;;;2.57;1.80;;;21.70;60.80;22.50;99777.00;;;;6246770;22;20176;-49
2023/07/25 06:30:02;;;;;;;1.87;1.73;;;21.70;60.70;22.50;99775.00;;;;6278702;22;20656;-50
2023/07/25 06:32:28;;;;;;;2.23;1.83;;;21.70;60.70;22.50;99779.00;;;;6280024;22;20156;-50
2023/07/25 06:34:53;;;;;;;2.30;2.07;;;21.70;60.60;22.40;99781.00;;;;6271745;22;20610;-49
2023/07/25 06:37:19;;;;;;;2.23;1.90;;;21.70;60.70;22.50;99777.00;;;;6272111;22;20172;-49
2023/07/25 06:39:45;;;;;;;2.03;1.87;;;21.70;60.80;22.40;99774.00;;;;6272886;22;20154;-50
2023/07/25 06:42:10;;;;;;;2.20;1.83;;;21.70;60.80;22.50;99774.00;;;;6273378;22;20150;-49
2023/07/25 06:44:36;;;;;;;2.60;2.00;;;21.70;60.70;22.40;99771.00;;;;6272519;22;20679;-49
2023/07/25 06:47:02;;;;;;;2.67;2.00;;;21.70;60.70;22.40;99764.00;;;;6272058;22;20203;-48
2023/07/25 06:49:28;;;;;;;4.70;1.90;;;21.70;60.90;22.40;99772.00;;;;6273033;22;20172;-50
2023/07/25 06:51:55;;;;;;;4.07;2.07;;;21.70;60.90;22.40;99782.00;;;;6272789;22;20743;-49
2023/07/25 06:54:22;;;;;;;3.63;2.20;;;21.70;61.00;22.40;99773.00;;;;6273510;22;20149;-49
2023/07/25 06:56:47;;;;;;;3.10;2.17;;;21.70;60.90;22.40;99779.00;;;;6271351;22;20264;-49
2023/07/25 06:59:13;;;;;;;3.50;2.03;;;21.70;60.90;22.40;99778.00;;;;6270815;22;20242;-49
2023/07/25 07:01:39;;;;;;;2.93;2.10;;;21.70;60.90;22.40;99759.00;;;;6272497;22;20481;-49
2023/07/25 07:04:05;;;;;;;2.40;2.20;;;21.70;60.90;22.40;99785.00;;;;6273297;22;20144;-50
2023/07/25 07:06:30;;;;;;;2.33;2.10;;;21.70;60.90;22.40;99788.00;;;;6270084;22;20628;-50
2023/07/25 07:08:56;;;;;;;1.90;1.80;;;21.70;60.90;22.40;99776.00;;;;6272446;22;20172;-50
2023/07/25 07:11:22;;;;;;;3.00;2.00;;;21.70;60.90;22.40;99788.00;;;;6272721;22;20226;-50
2023/07/25 07:13:48;;;;;;;2.73;2.00;;;21.70;60.80;22.40;99790.00;;;;6268065;22;20148;-50
2023/07/25 07:16:14;;;;;;;3.07;2.17;;;21.70;60.90;22.40;99793.00;;;;6269577;22;20529;-50
2023/07/25 07:18:39;;;;;;;2.33;2.10;;;21.70;60.90;22.40;99788.00;;;;6271510;22;20855;-50
2023/07/25 07:21:05;;;;;;;2.63;2.20;;;21.70;60.90;22.40;99796.00;;;;6272541;22;20145;-50
2023/07/25 07:23:31;;;;;;;2.10;1.90;;;21.70;60.90;22.40;99794.00;;;;6271198;22;20191;-49
2023/07/25 07:25:57;;;;;;;2.20;2.00;;;21.70;60.90;22.40;99790.00;;;;6270796;22;20617;-49
2023/07/25 07:28:22;;;;;;;2.20;2.00;;;21.70;60.90;22.40;99777.00;;;;6270858;22;20168;-51
2023/07/25 07:30:49;;;;;;;2.50;2.00;;;21.70;60.70;22.40;99789.00;;;;6263696;22;20187;-49
2023/07/25 07:33:16;;;;;;;2.43;2.20;;;21.70;60.70;22.40;99796.00;;;;6271396;22;20756;-50
2023/07/25 07:35:42;;;;;;;2.40;2.07;;;21.70;60.70;22.40;99786.00;;;;6269110;22;20256;-50
2023/07/25 07:38:08;;;;;;;2.10;1.90;;;21.70;60.70;22.40;99796.00;;;;6270634;22;20525;-50
2023/07/25 07:40:35;;;;;;;2.37;2.10;;;21.70;60.90;22.30;99795.00;;;;6271171;22;20153;-50
2023/07/25 07:43:01;;;;;;;3.20;2.13;;;21.70;60.80;22.30;99808.00;;;;6270015;22;20223;-50
2023/07/25 07:45:27;;;;;;;3.27;2.10;;;21.60;60.70;22.30;99793.00;;;;6268343;22;20195;-50
2023/07/25 07:47:53;;;;;;;2.00;1.90;;;21.60;60.80;22.30;99792.00;;;;6270585;22;20199;-49
2023/07/25 07:50:19;;;;;;;2.20;1.97;;;21.60;60.70;22.30;99790.00;;;;6271203;22;20148;-49
2023/07/25 07:52:45;;;;;;;2.20;2.00;;;21.60;60.80;22.30;99789.00;;;;6270701;22;20145;-49
2023/07/25 07:55:11;;;;;;;2.00;1.80;;;21.60;60.70;22.30;99788.00;;;;6270658;22;20149;-49
2023/07/25 07:57:42;;;;;;;2.13;1.93;;;21.70;60.90;22.30;99799.00;;;;6270047;22;20177;-49
2023/07/25 08:00:08;;;;;;;2.10;1.90;;;21.60;60.70;22.30;99801.00;;;;6271334;22;20142;-49
2023/07/25 08:02:34;;;;;;;2.37;2.10;;;21.60;60.70;22.30;99791.00;;;;6271944;22;20287;-49
2023/07/25 08:05:00;;;;;;;2.20;2.00;;;21.60;60.60;22.30;99796.00;;;;6271957;22;20236;-50
2023/07/25 08:07:25;;;;;;;2.73;2.27;;;21.60;60.60;22.30;99802.00;;;;6271868;22;20149;-49
2023/07/25 08:09:55;;;;;;;2.07;1.83;;;21.60;60.60;22.30;99805.00;;;;6270714;22;20149;-49
2023/07/25 08:12:21;;;;;;;2.13;1.90;;;21.60;60.60;22.30;99806.00;;;;6271709;22;20153;-49
2023/07/25 08:14:47;;;;;;;2.50;2.17;;;21.60;60.70;22.30;99803.00;;;;6272631;22;20711;-49
2023/07/25 08:17:13;;;;;;;2.33;2.10;;;21.60;60.90;22.30;99804.00;;;;6276126;22;20180;-51
2023/07/25 08:19:39;;;;;;;2.90;2.07;;;21.60;60.90;22.30;99811.00;;;;6275203;22;20168;-49
2023/07/25 08:22:05;;;;;;;2.63;2.10;;;21.60;60.90;22.30;99811.00;;;;6272916;22;20149;-49
2023/07/25 08:24:32;;;;;;;2.03;1.90;;;21.60;60.90;22.30;99800.00;;;;6272660;22;20183;-49
2023/07/25 08:27:00;;;;;;;2.00;1.90;;;21.60;61.00;22.30;99805.00;;;;6272526;22;20149;-49
2023/07/25 08:29:26;;;;;;;2.20;2.00;;;21.60;61.00;22.30;99796.00;;;;6271292;22;20513;-49
2023/07/25 08:31:52;;;;;;;3.00;2.13;;;21.60;61.00;22.30;99801.00;;;;6278721;22;20156;-49
2023/07/25 08:34:18;;;;;;;2.30;2.03;;;21.60;61.10;22.30;99820.00;;;;6275890;22;20223;-49
2023/07/25 08:36:43;;;;;;;2.73;2.10;;;21.60;61.10;22.30;99810.00;;;;6272000;22;20165;-49
2023/07/25 08:39:09;;;;;;;3.27;2.10;;;21.60;61.10;22.40;99817.00;;;;6271768;22;20168;-49
2023/07/25 08:41:37;;;;;;;2.90;2.00;;;21.60;61.10;22.30;99807.00;;;;6272629;22;20202;-49
2023/07/25 08:44:03;;;;;;;2.70;2.13;;;21.60;61.10;22.30;99807.00;;;;6272549;22;20185;-49
2023/07/25 08:46:28;;;;;;;3.23;2.10;;;21.60;61.10;22.30;99810.00;;;;6270311;22;20152;-49
2023/07/25 08:49:00;;;;;;;5.37;2.40;;;21.60;61.10;22.30;99825.00;;;;6244785;22;20169;-50
2023/07/25 08:51:27;;;;;;;3.97;2.30;;;21.60;61.20;22.30;99822.00;;;;6272358;22;20145;-50
2023/07/25 08:54:06;;;;;;;2.20;2.00;;;21.60;61.10;22.30;99813.00;;;;6270948;22;20184;-49
2023/07/25 08:56:34;;;;;;;3.37;2.10;;;21.60;61.10;22.30;99824.00;;;;6269766;22;20617;-49
2023/07/25 08:59:00;;;;;;;3.67;2.10;;;21.60;61.10;22.40;99824.00;;;;6272414;22;20165;-49
2023/07/25 09:01:26;;;;;;;2.40;2.13;;;21.60;61.10;22.40;99826.00;;;;6245156;22;20524;-49
2023/07/25 09:03:52;;;;;;;4.10;2.47;;;21.60;61.20;22.40;99821.00;;;;6219804;22;20145;-49
2023/07/25 09:06:18;;;;;;;2.30;2.10;;;21.60;61.30;22.40;99810.00;;;;6270420;22;20593;-50
2023/07/25 09:08:44;;;;;;;2.20;2.00;;;21.60;61.10;22.40;99819.00;;;;6245305;22;20165;-49
2023/07/25 09:11:10;;;;;;;4.13;2.40;;;21.60;61.10;22.40;99818.00;;;;6272485;22;20153;-49
2023/07/25 09:13:37;;;;;;;2.90;2.00;;;21.60;61.10;22.40;99832.00;;;;6270460;22;20149;-49
2023/07/25 09:16:03;;;;;;;3.07;2.30;;;21.60;61.10;22.40;99824.00;;;;6269777;22;20173;-49
2023/07/25 09:18:29;;;;;;;2.57;2.00;;;21.60;61.00;22.40;99827.00;;;;6272616;22;20161;-50
2023/07/25 09:20:55;;;;;;;3.67;2.07;;;21.60;61.10;22.40;99826.00;;;;6245931;22;20279;-50
2023/07/25 09:23:21;;;;;;;2.40;2.20;;;21.60;61.10;22.40;99823.00;;;;6271088;22;20145;-50
2023/07/25 09:25:49;;;;;;;2.03;1.90;;;21.60;61.10;22.40;99837.00;;;;6270918;22;20168;-49
2023/07/25 09:28:15;;;;;;;2.53;2.03;;;21.60;61.10;22.40;99836.00;;;;6270537;22;20169;-49
2023/07/25 09:30:48;;;;;;;2.27;2.07;;;21.60;61.00;22.40;99832.00;;;;6271275;22;20179;-49
2023/07/25 09:33:27;;;;;;;2.30;2.10;;;21.60;61.00;22.40;99833.00;;;;6272134;22;20155;-49
2023/07/25 09:35:53;;;;;;;2.67;2.10;;;21.60;61.00;22.40;99842.00;;;;6271073;22;20176;-49
2023/07/25 09:38:19;;;;;;;3.13;2.10;;;21.60;61.00;22.40;99841.00;;;;6272155;22;20253;-49
2023/07/25 09:40:47;;;;;;;2.83;2.00;;;21.60;61.10;22.40;99840.00;;;;6271548;22;20145;-49
2023/07/25 09:43:26;;;;;;;2.30;2.10;;;21.60;61.00;22.40;99840.00;;;;6243821;22;20156;-49
2023/07/25 09:45:52;;;;;;;2.13;1.93;;;21.60;61.10;22.40;99841.00;;;;6269523;22;20236;-49
2023/07/25 09:48:18;;;;;;;2.70;2.07;;;21.60;61.00;22.40;99831.00;;;;6272048;22;20215;-49
2023/07/25 09:50:46;;;;;;;2.87;2.20;;;21.60;61.00;22.40;99842.00;;;;6271921;22;20195;-49
2023/07/25 09:53:15;;;;;;;2.87;2.00;;;21.60;61.10;22.50;99840.00;;;;6272464;22;20180;-48
2023/07/25 09:55:41;;;;;;;3.67;2.23;;;21.60;61.10;22.50;99832.00;;;;6271220;22;20559;-49
2023/07/25 09:58:07;;;;;;;2.33;1.90;;;21.60;61.00;22.50;99831.00;;;;6271772;22;20617;-49
2023/07/25 10:00:33;;;;;;;2.23;2.03;;;21.60;61.00;22.50;99832.00;;;;6271252;22;20176;-49
2023/07/25 10:02:58;;;;;;;2.20;2.00;;;21.60;61.00;22.50;99835.00;;;;6272431;22;20179;-48
2023/07/25 10:05:25;;;;;;;2.20;2.00;;;21.60;61.00;22.50;99831.00;;;;6270717;22;20211;-51
2023/07/25 10:07:52;;;;;;;2.40;2.20;;;21.60;61.10;22.50;99824.00;;;;6271954;22;20175;-50
2023/07/25 10:10:18;;;;;;;3.47;2.03;;;21.60;61.10;22.50;99837.00;;;;6270850;22;20267;-51
2023/07/25 10:12:44;;;;;;;2.23;1.90;;;21.50;61.00;22.50;99832.00;;;;6272250;22;20735;-49
2023/07/25 10:15:10;;;;;;;2.33;2.10;;;21.60;61.10;22.50;99826.00;;;;6271570;22;20153;-49
2023/07/25 10:17:36;;;;;;;3.77;2.20;;;21.60;61.10;22.50;99828.00;;;;6271103;22;20241;-52
2023/07/25 10:20:01;;;;;;;2.13;1.90;;;21.60;61.30;22.50;99839.00;;;;6279431;22;20329;-51
2023/07/25 10:22:41;;;;;;;2.20;2.00;;;21.60;61.40;22.50;99821.00;;;;6220763;22;20153;-51
2023/07/25 10:25:11;;;;;;;3.07;2.00;;;21.60;61.50;22.50;99835.00;;;;6272574;22;20193;-52
2023/07/25 10:27:37;;;;;;;2.57;2.30;;;21.60;61.70;22.50;99826.00;;;;6270362;22;20218;-51
2023/07/25 10:30:03;;;;;;;2.30;2.10;;;21.60;61.60;22.50;99826.00;;;;6271093;22;20639;-52
2023/07/25 10:32:45;;;;;;;2.70;2.00;;;21.70;61.70;22.50;99834.00;;;;6269763;22;20157;-52
2023/07/25 10:35:11;;;;;;;3.40;2.20;;;21.70;61.80;22.50;99812.00;;;;6275563;22;20173;-52
2023/07/25 10:37:44;;;;;;;2.40;2.20;;;21.70;61.80;22.50;99828.00;;;;6271217;22;20545;-51
2023/07/25 10:40:15;;;;;;;2.20;2.00;;;21.70;61.80;22.50;99826.00;;;;6272314;22;20194;-50
2023/07/25 10:42:47;;;;;;;2.53;2.13;;;21.70;61.80;22.50;99830.00;;;;6272577;22;20452;-52
2023/07/25 10:45:44;;;;;;;3.30;2.20;;;21.70;61.80;22.60;99826.00;;;;6271905;22;20613;-51
2023/07/25 10:48:42;;;;;;;2.33;1.90;;;21.70;61.80;22.60;99822.00;;;;6271849;22;20641;-53
2023/07/25 10:51:08;;;;;;;2.20;2.00;;;21.80;62.00;22.60;99826.00;;;;6271022;22;20144;-51